createdAt,value
2023-02-26T00:02:01.211Z,1.48
2023-02-26T00:04:10.521Z,1.75
2023-02-26T00:06:15.373Z,1.40
2023-02-26T00:08:20.283Z,1.60
2023-02-26T00:10:25.137Z,1.90
2023-02-26T00:12:30.697Z,1.65
2023-02-26T00:14:36.071Z,1.70
2023-02-26T00:16:41.411Z,1.48
2023-02-26T00:18:47.004Z,1.73
2023-02-26T00:20:55.367Z,1.90
2023-02-26T00:23:00.874Z,1.55
2023-02-26T00:25:05.768Z,1.42
2023-02-26T00:27:10.654Z,1.88
2023-02-26T00:29:16.084Z,1.70
2023-02-26T00:31:25.077Z,2.03
2023-02-26T00:33:30.934Z,2.00
2023-02-26T00:35:37.614Z,1.70
2023-02-26T00:38:00.715Z,1.52
2023-02-26T00:40:21.719Z,1.83
2023-02-26T00:42:27.011Z,1.88
2023-02-26T00:44:32.800Z,2.00
2023-02-26T00:46:47.163Z,2.08
2023-02-26T00:48:58.652Z,1.80
2023-02-26T00:51:22.102Z,2.13
2023-02-26T00:53:34.644Z,1.80
2023-02-26T00:55:39.604Z,1.65
2023-02-26T00:57:44.447Z,2.20
2023-02-26T00:59:49.207Z,1.75
2023-02-26T01:01:55.647Z,1.83
2023-02-26T01:04:01.061Z,1.83
2023-02-26T01:06:06.462Z,2.00
2023-02-26T01:08:18.182Z,1.95
2023-02-26T01:10:26.720Z,1.55
2023-02-26T01:12:32.109Z,1.75
2023-02-26T01:14:37.689Z,2.08
2023-02-26T01:16:51.892Z,2.28
2023-02-26T01:19:03.621Z,1.70
2023-02-26T01:21:16.265Z,1.52
2023-02-26T01:23:26.723Z,2.08
2023-02-26T01:25:42.108Z,1.67
2023-02-26T01:27:47.996Z,1.88
2023-02-26T01:29:54.484Z,1.73
2023-02-26T01:32:08.536Z,1.30
2023-02-26T01:34:21.623Z,1.65
2023-02-26T01:36:30.934Z,1.55
2023-02-26T01:38:44.205Z,1.70
2023-02-26T01:41:20.471Z,1.50
2023-02-26T01:43:34.850Z,1.52
2023-02-26T01:45:58.185Z,1.50
2023-02-26T01:48:07.577Z,1.67
2023-02-26T01:50:17.708Z,1.75
2023-02-26T01:53:07.168Z,1.85
2023-02-26T01:55:15.430Z,1.55
2023-02-26T01:59:29.848Z,1.85
2023-02-26T02:01:35.431Z,1.90
2023-02-26T02:03:42.499Z,1.80
2023-02-26T02:05:52.766Z,1.50
2023-02-26T02:07:58.658Z,1.75
2023-02-26T02:10:04.214Z,1.77
2023-02-26T02:12:23.921Z,2.00
2023-02-26T02:14:42.944Z,1.35
2023-02-26T02:16:55.804Z,1.60
2023-02-26T02:19:12.265Z,1.58
2023-02-26T02:22:03.495Z,1.10
2023-02-26T02:24:14.356Z,1.20
2023-02-26T02:26:46.889Z,2.42
2023-02-26T02:29:16.215Z,1.13
2023-02-26T02:31:28.067Z,1.30
2023-02-26T02:33:39.843Z,1.15
2023-02-26T02:35:49.154Z,1.10
2023-02-26T02:38:00.298Z,1.40
2023-02-26T02:40:08.339Z,1.30
2023-02-26T02:42:24.972Z,0.98
2023-02-26T02:44:32.261Z,1.48
2023-02-26T02:46:43.377Z,1.40
2023-02-26T02:48:51.952Z,1.23
2023-02-26T02:51:00.508Z,1.13
2023-02-26T02:53:10.925Z,1.10
2023-02-26T02:55:22.852Z,1.52
2023-02-26T02:57:32.414Z,1.17
2023-02-26T02:59:42.641Z,1.75
2023-02-26T03:01:55.774Z,1.55
2023-02-26T03:04:05.284Z,1.20
2023-02-26T03:06:10.616Z,1.00
2023-02-26T03:08:18.752Z,1.27
2023-02-26T03:10:24.602Z,0.95
2023-02-26T03:12:30.229Z,1.10
2023-02-26T03:14:36.240Z,1.48
2023-02-26T03:16:59.914Z,1.30
2023-02-26T03:19:13.354Z,1.13
2023-02-26T03:21:31.392Z,1.30
2023-02-26T03:23:43.342Z,1.42
2023-02-26T03:25:52.591Z,1.10
2023-02-26T03:28:09.110Z,1.38
2023-02-26T03:30:22.410Z,1.48
2023-02-26T03:32:34.266Z,0.90
2023-02-26T03:34:46.432Z,1.20
2023-02-26T03:36:59.290Z,1.23
2023-02-26T03:39:13.114Z,1.52
2023-02-26T03:41:26.411Z,1.40
2023-02-26T03:43:36.519Z,1.45
2023-02-26T03:45:48.010Z,1.13
2023-02-26T03:47:58.215Z,1.10
2023-02-26T03:50:09.710Z,1.10
2023-02-26T03:52:28.518Z,1.30
2023-02-26T03:54:46.368Z,1.38
2023-02-26T03:57:23.199Z,1.30
2023-02-26T03:59:46.798Z,1.70
2023-02-26T04:02:11.605Z,1.40
2023-02-26T04:04:27.418Z,1.40
2023-02-26T04:06:32.840Z,1.75
2023-02-26T04:08:39.582Z,2.17
2023-02-26T04:12:51.652Z,1.27
2023-02-26T04:14:57.692Z,1.00
2023-02-26T04:17:03.795Z,1.55
2023-02-26T04:19:08.825Z,1.00
2023-02-26T04:21:18.644Z,1.17
2023-02-26T04:23:24.186Z,0.90
2023-02-26T04:25:28.999Z,1.50
2023-02-26T04:29:39.905Z,1.48
2023-02-26T04:31:45.280Z,1.00
2023-02-26T04:33:50.218Z,1.15
2023-02-26T04:35:55.030Z,0.98
2023-02-26T04:38:02.517Z,0.98
2023-02-26T04:40:09.987Z,0.95
2023-02-26T04:42:15.228Z,1.40
2023-02-26T04:44:20.199Z,1.13
2023-02-26T04:46:25.446Z,1.00
2023-02-26T04:48:30.792Z,1.20
2023-02-26T04:50:35.803Z,1.08
2023-02-26T04:52:40.753Z,1.02
2023-02-26T04:54:48.424Z,0.90
2023-02-26T04:56:54.280Z,0.80
2023-02-26T04:58:59.070Z,1.13
2023-02-26T05:01:07.360Z,1.02
2023-02-26T05:05:19.518Z,1.23
2023-02-26T05:07:24.735Z,1.05
2023-02-26T05:11:36.732Z,1.30
2023-02-26T05:13:44.051Z,1.23
2023-02-26T05:15:49.133Z,1.05
2023-02-26T05:17:53.921Z,1.10
2023-02-26T05:19:58.792Z,1.10
2023-02-26T05:22:04.716Z,1.10
2023-02-26T05:24:10.355Z,1.20
2023-02-26T05:26:15.187Z,1.20
2023-02-26T05:28:22.591Z,1.48
2023-02-26T05:30:27.919Z,1.17
2023-02-26T05:34:37.554Z,1.33
2023-02-26T05:36:42.539Z,1.30
2023-02-26T05:38:47.380Z,1.35
2023-02-26T05:40:52.277Z,1.02
2023-02-26T05:43:00.102Z,1.10
2023-02-26T05:45:08.882Z,1.13
2023-02-26T05:47:13.736Z,1.05
2023-02-26T05:49:18.687Z,1.30
2023-02-26T05:51:23.527Z,1.30
2023-02-26T05:53:28.440Z,3.33
2023-02-26T05:55:33.330Z,7.90
2023-02-26T05:57:38.179Z,12.82
2023-02-26T05:59:43.498Z,23.95
2023-02-26T06:01:50.955Z,19.13
2023-02-26T06:03:55.752Z,7.55
2023-02-26T06:06:00.519Z,9.98
2023-02-26T06:08:05.766Z,3.67
2023-02-26T06:10:12.365Z,4.10
2023-02-26T06:12:17.138Z,2.90
2023-02-26T06:14:22.073Z,5.15
2023-02-26T06:16:27.628Z,2.60
2023-02-26T06:18:35.297Z,3.40
2023-02-26T06:20:40.176Z,2.63
2023-02-26T06:22:44.982Z,2.28
2023-02-26T06:24:50.031Z,1.75
2023-02-26T06:29:02.356Z,1.42
2023-02-26T06:31:07.501Z,1.83
2023-02-26T06:35:19.744Z,1.90
2023-02-26T06:37:24.509Z,1.50
2023-02-26T06:39:29.408Z,1.35
2023-02-26T06:41:34.268Z,1.90
2023-02-26T06:43:39.124Z,1.70
2023-02-26T06:45:44.136Z,1.63
2023-02-26T06:47:49.050Z,1.92
2023-02-26T06:49:56.799Z,1.80
2023-02-26T06:52:04.387Z,1.50
2023-02-26T06:54:09.202Z,1.52
2023-02-26T06:56:14.313Z,1.40
2023-02-26T07:00:24.873Z,1.73
2023-02-26T07:02:29.999Z,1.42
2023-02-26T07:06:39.626Z,1.55
2023-02-26T07:08:48.662Z,1.20
2023-02-26T07:10:55.873Z,1.92
2023-02-26T07:13:00.679Z,1.30
2023-02-26T07:15:05.444Z,1.65
2023-02-26T07:17:10.315Z,1.52
2023-02-26T07:19:15.151Z,1.33
2023-02-26T07:21:20.005Z,1.85
2023-02-26T07:23:24.895Z,1.77
2023-02-26T07:25:32.260Z,1.85
2023-02-26T07:27:37.076Z,1.67
2023-02-26T07:29:42.059Z,1.27
2023-02-26T07:31:46.937Z,6.00
2023-02-26T07:33:51.912Z,1.77
2023-02-26T07:35:57.750Z,2.47
2023-02-26T07:38:02.595Z,1.90
2023-02-26T07:40:08.788Z,3.70
2023-02-26T07:42:16.335Z,2.00
2023-02-26T07:44:21.122Z,1.85
2023-02-26T07:46:26.239Z,1.45
2023-02-26T07:48:31.267Z,1.20
2023-02-26T07:50:36.409Z,3.53
2023-02-26T07:54:45.716Z,2.33
2023-02-26T07:56:50.722Z,1.85
2023-02-26T08:01:05.343Z,3.38
2023-02-26T08:03:10.240Z,2.33
2023-02-26T08:05:15.069Z,2.58
2023-02-26T08:07:20.150Z,1.75
2023-02-26T08:09:26.159Z,5.30
2023-02-26T08:11:32.902Z,2.30
2023-02-26T08:13:37.754Z,4.45
2023-02-26T08:15:45.206Z,3.22
2023-02-26T08:17:50.212Z,2.05
2023-02-26T08:19:55.050Z,2.33
2023-02-26T08:21:59.846Z,2.17
2023-02-26T08:24:04.714Z,2.42
2023-02-26T08:26:10.942Z,2.53
2023-02-26T08:28:16.126Z,2.10
2023-02-26T08:32:29.207Z,1.83
2023-02-26T08:34:34.055Z,2.30
2023-02-26T08:36:38.852Z,1.92
2023-02-26T08:38:43.883Z,1.98
2023-02-26T08:40:52.844Z,1.50
2023-02-26T08:43:00.163Z,1.50
2023-02-26T08:45:05.272Z,2.10
2023-02-26T08:47:21.809Z,1.67
2023-02-26T08:49:50.734Z,1.83
2023-02-26T08:52:17.672Z,1.83
2023-02-26T08:54:22.530Z,1.80
2023-02-26T08:56:27.888Z,1.95
2023-02-26T08:58:35.258Z,2.40
2023-02-26T09:00:41.282Z,2.17
2023-02-26T09:02:46.185Z,2.00
2023-02-26T09:04:53.668Z,1.35
2023-02-26T09:06:59.658Z,3.45
2023-02-26T09:09:04.451Z,10.52
2023-02-26T09:11:11.270Z,6.25
2023-02-26T09:13:17.330Z,7.80
2023-02-26T09:15:22.818Z,6.95
2023-02-26T09:19:33.645Z,7.00
2023-02-26T09:21:43.288Z,5.22
2023-02-26T09:23:53.683Z,2.85
2023-02-26T09:25:59.428Z,4.15
2023-02-26T09:28:04.896Z,2.17
2023-02-26T09:30:11.040Z,2.10
2023-02-26T09:32:18.016Z,1.48
2023-02-26T09:34:27.094Z,1.10
2023-02-26T09:36:34.285Z,1.50
2023-02-26T09:38:44.323Z,1.38
2023-02-26T09:40:55.968Z,1.23
2023-02-26T09:43:19.737Z,1.60
2023-02-26T09:45:33.638Z,1.20
2023-02-26T09:47:42.757Z,0.80
2023-02-26T09:49:53.792Z,0.80
2023-02-26T09:52:07.095Z,1.00
2023-02-26T09:54:19.995Z,0.70
2023-02-26T09:56:30.801Z,0.90
2023-02-26T09:58:37.822Z,0.98
2023-02-26T10:00:50.629Z,1.00
2023-02-26T10:03:07.486Z,0.70
2023-02-26T10:05:21.955Z,0.50
2023-02-26T10:07:39.290Z,1.10
2023-02-26T10:10:02.660Z,0.80
2023-02-26T10:12:14.254Z,0.60
2023-02-26T10:14:25.863Z,0.80
2023-02-26T10:16:33.888Z,1.02
2023-02-26T10:18:45.347Z,0.93
2023-02-26T10:20:57.672Z,0.60
2023-02-26T10:23:07.692Z,0.90
2023-02-26T10:25:19.784Z,0.80
2023-02-26T10:27:34.133Z,0.43
2023-02-26T10:29:43.999Z,0.60
2023-02-26T10:32:00.840Z,0.88
2023-02-26T10:34:18.868Z,0.85
2023-02-26T10:36:28.416Z,1.08
2023-02-26T10:38:34.466Z,1.30
2023-02-26T10:40:47.483Z,0.50
2023-02-26T10:42:56.967Z,1.38
2023-02-26T10:45:14.404Z,1.17
2023-02-26T10:47:27.113Z,1.17
2023-02-26T10:49:55.306Z,0.70
2023-02-26T10:52:04.467Z,0.93
2023-02-26T10:54:18.577Z,0.73
2023-02-26T10:56:29.800Z,0.68
2023-02-26T10:58:34.876Z,0.70
2023-02-26T11:02:47.390Z,0.80
2023-02-26T11:05:05.849Z,0.80
2023-02-26T11:07:14.293Z,0.90
2023-02-26T11:09:25.200Z,0.82
2023-02-26T11:11:45.527Z,1.00
2023-02-26T11:13:50.502Z,1.73
2023-02-26T11:15:58.082Z,1.00
2023-02-26T11:18:04.461Z,1.08
2023-02-26T11:20:25.767Z,0.80
2023-02-26T11:22:33.883Z,0.80
2023-02-26T11:24:40.865Z,1.02
2023-02-26T11:26:51.351Z,1.20
2023-02-26T11:29:01.380Z,1.20
2023-02-26T11:31:11.402Z,1.50
2023-02-26T11:33:20.718Z,1.70
2023-02-26T11:35:28.295Z,0.88
2023-02-26T11:37:38.081Z,4.35
2023-02-26T11:39:42.999Z,3.45
2023-02-26T11:41:54.637Z,1.70
2023-02-26T11:44:04.086Z,1.85
2023-02-26T11:46:09.307Z,1.27
2023-02-26T11:50:26.088Z,2.25
2023-02-26T11:52:35.489Z,0.80
2023-02-26T11:54:42.081Z,0.80
2023-02-26T11:56:47.174Z,1.05
2023-02-26T11:58:56.157Z,1.50
2023-02-26T12:01:02.629Z,2.15
2023-02-26T12:03:10.770Z,0.90
2023-02-26T12:05:20.020Z,0.93
2023-02-26T12:07:25.284Z,0.93
2023-02-26T12:09:30.282Z,0.77
2023-02-26T12:11:51.591Z,0.70
2023-02-26T12:14:14.180Z,0.98
2023-02-26T12:16:28.168Z,0.93
2023-02-26T12:18:45.649Z,0.75
2023-02-26T12:21:00.981Z,0.60
2023-02-26T12:23:23.078Z,0.75
2023-02-26T12:25:48.990Z,0.90
2023-02-26T12:28:10.437Z,1.00
2023-02-26T12:30:37.194Z,0.90
2023-02-26T12:33:00.719Z,0.90
2023-02-26T12:35:38.254Z,0.75
2023-02-26T12:37:57.736Z,0.80
2023-02-26T12:40:14.763Z,0.70
2023-02-26T12:42:33.099Z,0.63
2023-02-26T12:45:07.192Z,1.15
2023-02-26T12:47:32.649Z,0.80
2023-02-26T12:49:52.796Z,0.70
2023-02-26T12:52:29.980Z,0.77
2023-02-26T12:54:48.330Z,0.80
2023-02-26T12:57:20.961Z,0.82
2023-02-26T12:59:46.337Z,0.80
2023-02-26T13:02:15.744Z,0.70
2023-02-26T13:04:57.744Z,1.02
2023-02-26T13:07:29.502Z,3.35
2023-02-26T13:09:41.762Z,8.80
2023-02-26T13:11:55.137Z,2.95
2023-02-26T13:14:15.792Z,3.72
2023-02-26T13:16:34.728Z,2.10
2023-02-26T13:18:48.867Z,2.42
2023-02-26T13:21:01.541Z,2.63
2023-02-26T13:23:09.438Z,2.80
2023-02-26T13:25:24.695Z,1.95
2023-02-26T13:27:35.724Z,0.90
2023-02-26T13:29:47.867Z,1.90
2023-02-26T13:31:59.966Z,2.65
2023-02-26T13:34:09.473Z,1.00
2023-02-26T13:36:18.749Z,1.08
2023-02-26T13:38:29.394Z,0.95
2023-02-26T13:40:48.963Z,1.00
2023-02-26T13:43:02.963Z,1.00
2023-02-26T13:45:32.979Z,0.80
2023-02-26T13:47:49.953Z,0.80
2023-02-26T13:50:06.733Z,0.90
2023-02-26T13:52:26.067Z,0.88
2023-02-26T13:54:47.180Z,0.70
2023-02-26T13:56:58.673Z,0.70
2023-02-26T13:59:08.547Z,0.70
2023-02-26T14:01:18.292Z,0.73
2023-02-26T14:03:35.624Z,0.65
2023-02-26T14:06:01.091Z,0.70
2023-02-26T14:08:25.618Z,1.30
2023-02-26T14:10:35.682Z,0.80
2023-02-26T14:12:41.118Z,0.70
2023-02-26T14:14:48.746Z,1.00
2023-02-26T14:16:58.673Z,0.90
2023-02-26T14:19:08.507Z,0.75
2023-02-26T14:21:51.439Z,0.80
2023-02-26T14:24:00.642Z,1.23
2023-02-26T14:26:08.754Z,1.20
2023-02-26T14:28:36.232Z,1.02
2023-02-26T14:30:51.272Z,2.28
2023-02-26T14:33:10.033Z,1.50
2023-02-26T14:35:18.787Z,1.15
2023-02-26T14:37:27.354Z,1.15
2023-02-26T14:39:39.196Z,0.95
2023-02-26T14:41:44.722Z,1.52
2023-02-26T14:43:56.694Z,1.10
2023-02-26T14:46:01.636Z,1.20
2023-02-26T14:48:09.455Z,1.08
2023-02-26T14:50:18.744Z,0.85
2023-02-26T14:52:40.221Z,0.80
2023-02-26T14:55:02.865Z,0.90
2023-02-26T14:57:18.715Z,1.08
2023-02-26T14:59:47.589Z,0.80
2023-02-26T15:01:57.428Z,0.90
2023-02-26T15:04:17.517Z,1.20
2023-02-26T15:06:49.077Z,1.15
2023-02-26T15:09:05.647Z,1.00
2023-02-26T15:11:40.197Z,0.90
2023-02-26T15:14:08.931Z,1.10
2023-02-26T15:16:25.282Z,1.10
2023-02-26T15:18:59.416Z,1.10
2023-02-26T15:21:17.183Z,1.00
2023-02-26T15:23:37.484Z,0.60
2023-02-26T15:25:44.453Z,1.10
2023-02-26T15:27:49.811Z,1.02
2023-02-26T15:29:59.150Z,0.98
2023-02-26T15:32:16.686Z,1.40
2023-02-26T15:34:23.683Z,1.25
2023-02-26T15:36:28.735Z,1.48
2023-02-26T15:38:44.052Z,1.33
2023-02-26T15:40:49.661Z,1.10
2023-02-26T15:43:01.427Z,1.08
2023-02-26T15:45:15.913Z,1.00
2023-02-26T15:47:21.399Z,1.17
2023-02-26T15:49:30.068Z,1.20
2023-02-26T15:51:36.043Z,1.33
2023-02-26T15:53:44.485Z,1.10
2023-02-26T15:55:57.107Z,1.00
2023-02-26T15:58:02.828Z,0.88
2023-02-26T16:00:24.806Z,1.08
2023-02-26T16:02:32.805Z,1.20
2023-02-26T16:04:38.489Z,1.05
2023-02-26T16:06:46.044Z,1.17
2023-02-26T16:08:50.961Z,1.00
2023-02-26T16:10:57.745Z,1.20
2023-02-26T16:13:04.666Z,0.95
2023-02-26T16:15:17.609Z,0.95
2023-02-26T16:17:28.373Z,1.15
2023-02-26T16:19:38.453Z,0.90
2023-02-26T16:21:44.831Z,1.02
2023-02-26T16:23:54.148Z,0.98
2023-02-26T16:26:03.298Z,1.00
2023-02-26T16:28:11.958Z,1.30
2023-02-26T16:30:24.361Z,1.00
2023-02-26T16:32:32.600Z,1.00
2023-02-26T16:34:43.347Z,1.40
2023-02-26T16:36:48.460Z,1.00
2023-02-26T16:41:03.787Z,1.52
2023-02-26T16:43:29.821Z,2.03
2023-02-26T16:45:55.855Z,1.80
2023-02-26T16:50:06.252Z,1.25
2023-02-26T16:54:23.304Z,1.35
2023-02-26T16:56:32.516Z,1.52
2023-02-26T16:58:38.023Z,1.20
2023-02-26T17:00:46.638Z,1.40
2023-02-26T17:02:56.838Z,1.60
2023-02-26T17:05:04.624Z,1.33
2023-02-26T17:07:18.858Z,1.73
2023-02-26T17:09:30.426Z,1.55
2023-02-26T17:11:44.546Z,1.63
2023-02-26T17:14:05.515Z,2.45
2023-02-26T17:16:15.447Z,2.03
2023-02-26T17:18:23.501Z,2.00
2023-02-26T17:20:29.412Z,2.00
2023-02-26T17:22:34.235Z,2.03
2023-02-26T17:24:44.362Z,2.30
2023-02-26T17:26:50.299Z,1.83
2023-02-26T17:28:55.157Z,2.78
2023-02-26T17:31:01.696Z,2.60
2023-02-26T17:33:08.039Z,2.47
2023-02-26T17:35:19.038Z,2.42
2023-02-26T17:37:28.070Z,1.90
2023-02-26T17:39:32.913Z,1.67
2023-02-26T17:41:37.671Z,1.88
2023-02-26T17:43:42.479Z,1.85
2023-02-26T17:45:47.383Z,2.08
2023-02-26T17:47:52.854Z,2.20
2023-02-26T17:50:00.262Z,2.38
2023-02-26T17:52:08.339Z,2.50
2023-02-26T17:54:13.257Z,2.20
2023-02-26T17:56:25.912Z,2.15
2023-02-26T17:58:34.041Z,1.95
2023-02-26T18:00:41.997Z,1.90
2023-02-26T18:02:47.012Z,2.20
2023-02-26T18:04:52.103Z,3.28
2023-02-26T18:09:04.924Z,2.45
2023-02-26T18:11:11.880Z,2.20
2023-02-26T18:13:16.712Z,2.58
2023-02-26T18:15:21.676Z,2.50
2023-02-26T18:17:31.128Z,3.55
2023-02-26T18:19:35.952Z,3.22
2023-02-26T18:21:40.810Z,2.72
2023-02-26T18:23:45.733Z,2.15
2023-02-26T18:25:56.540Z,2.40
2023-02-26T18:28:02.443Z,2.40
2023-02-26T18:30:09.805Z,2.85
2023-02-26T18:32:16.360Z,2.65
2023-02-26T18:34:21.641Z,2.63
2023-02-26T18:38:39.133Z,3.15
2023-02-26T18:40:44.889Z,3.97
2023-02-26T18:42:52.735Z,3.20
2023-02-26T18:44:58.634Z,2.88
2023-02-26T18:47:03.496Z,2.47
2023-02-26T18:49:08.347Z,2.50
2023-02-26T18:51:13.370Z,2.10
2023-02-26T18:53:23.639Z,2.22
2023-02-26T18:55:28.468Z,2.30
2023-02-26T18:57:33.643Z,1.88
2023-02-26T19:01:45.772Z,2.25
2023-02-26T19:03:50.621Z,2.00
2023-02-26T19:06:02.459Z,2.70
2023-02-26T19:08:08.529Z,2.28
2023-02-26T19:10:16.194Z,3.25
2023-02-26T19:12:23.259Z,2.20
2023-02-26T19:14:28.505Z,2.05
2023-02-26T19:16:43.806Z,2.53
2023-02-26T19:18:48.718Z,2.38
2023-02-26T19:20:56.200Z,2.35
2023-02-26T19:23:01.176Z,2.13
2023-02-26T19:25:06.417Z,2.10
2023-02-26T19:27:12.096Z,1.65
2023-02-26T19:29:19.098Z,2.40
2023-02-26T19:31:24.030Z,2.10
2023-02-26T19:33:31.873Z,1.80
2023-02-26T19:35:36.971Z,1.95
2023-02-26T19:37:41.841Z,2.38
2023-02-26T19:39:46.703Z,1.63
2023-02-26T19:41:55.668Z,2.05
2023-02-26T19:44:00.801Z,2.05
2023-02-26T19:46:05.624Z,2.38
2023-02-26T19:48:10.538Z,1.77
2023-02-26T19:50:22.638Z,1.85
2023-02-26T19:52:28.247Z,1.73
2023-02-26T19:54:33.231Z,1.90
2023-02-26T19:56:38.572Z,2.17
2023-02-26T19:58:43.665Z,2.00
2023-02-26T20:02:53.082Z,1.65
2023-02-26T20:05:00.783Z,1.60
2023-02-26T20:07:08.294Z,1.77
2023-02-26T20:09:14.658Z,1.73
2023-02-26T20:11:19.495Z,1.63
2023-02-26T20:13:24.463Z,2.13
2023-02-26T20:15:29.249Z,2.53
2023-02-26T20:17:34.141Z,2.30
2023-02-26T20:19:38.979Z,2.55
2023-02-26T20:21:43.973Z,2.05
2023-02-26T20:23:51.453Z,2.55
2023-02-26T20:25:59.375Z,2.22
2023-02-26T20:28:04.331Z,1.80
2023-02-26T20:30:11.208Z,2.30
2023-02-26T20:32:16.438Z,2.45
2023-02-26T20:34:21.747Z,1.98
2023-02-26T20:38:31.752Z,1.70
2023-02-26T20:40:39.169Z,1.45
2023-02-26T20:42:44.104Z,1.42
2023-02-26T20:44:48.916Z,1.77
2023-02-26T20:46:57.596Z,2.00
2023-02-26T20:49:02.931Z,1.90
2023-02-26T20:51:08.719Z,2.53
2023-02-26T20:53:13.540Z,1.80
2023-02-26T20:55:20.486Z,2.17
2023-02-26T20:57:29.501Z,1.92
2023-02-26T20:59:34.584Z,2.00
2023-02-26T21:03:44.070Z,1.55
2023-02-26T21:05:49.197Z,2.00
2023-02-26T21:07:54.120Z,1.50
2023-02-26T21:09:58.916Z,1.90
2023-02-26T21:12:03.704Z,2.00
2023-02-26T21:14:12.554Z,1.75
2023-02-26T21:16:17.463Z,1.70
2023-02-26T21:18:22.312Z,1.50
2023-02-26T21:20:27.147Z,2.45
2023-02-26T21:22:31.904Z,1.88
2023-02-26T21:24:36.763Z,1.52
2023-02-26T21:26:41.963Z,1.45
2023-02-26T21:28:48.639Z,1.27
2023-02-26T21:30:56.840Z,1.20
2023-02-26T21:33:01.776Z,1.52
2023-02-26T21:35:07.109Z,1.63
2023-02-26T21:37:14.615Z,1.70
2023-02-26T21:39:20.238Z,1.30
2023-02-26T21:41:25.423Z,1.17
2023-02-26T21:43:30.571Z,1.50
2023-02-26T21:45:36.313Z,1.45
2023-02-26T21:47:43.858Z,1.58
2023-02-26T21:49:48.651Z,1.75
2023-02-26T21:51:53.673Z,1.65
2023-02-26T21:54:01.643Z,1.20
2023-02-26T21:56:06.829Z,1.73
2023-02-26T22:00:18.840Z,1.42
2023-02-26T22:02:23.682Z,1.60
2023-02-26T22:04:31.182Z,1.63
2023-02-26T22:06:36.336Z,1.60
2023-02-26T22:08:41.268Z,1.48
2023-02-26T22:10:46.035Z,1.50
2023-02-26T22:12:50.948Z,1.83
2023-02-26T22:14:55.723Z,1.90
2023-02-26T22:17:00.515Z,1.70
2023-02-26T22:19:05.366Z,1.55
2023-02-26T22:21:12.848Z,1.60
2023-02-26T22:23:17.819Z,1.70
2023-02-26T22:27:28.385Z,1.60
2023-02-26T22:29:33.376Z,1.50
2023-02-26T22:31:38.288Z,1.70
2023-02-26T22:33:43.045Z,1.80
2023-02-26T22:35:47.947Z,1.60
2023-02-26T22:37:55.351Z,1.77
2023-02-26T22:40:00.150Z,1.95
2023-02-26T22:42:04.981Z,2.25
2023-02-26T22:44:09.940Z,1.85
2023-02-26T22:46:17.087Z,1.77
2023-02-26T22:48:22.795Z,1.77
2023-02-26T22:50:27.740Z,1.90
2023-02-26T22:52:33.107Z,2.20
2023-02-26T22:54:40.779Z,1.70
2023-02-26T22:56:45.687Z,1.63
2023-02-26T22:58:50.536Z,1.70
2023-02-26T23:01:01.777Z,1.60
2023-02-26T23:03:06.983Z,1.88
2023-02-26T23:05:12.607Z,2.33
2023-02-26T23:07:17.552Z,2.20
2023-02-26T23:09:22.673Z,2.28
2023-02-26T23:11:30.191Z,2.50
2023-02-26T23:13:36.813Z,2.30
2023-02-26T23:15:41.749Z,2.53
2023-02-26T23:17:46.809Z,2.60
2023-02-26T23:19:51.616Z,2.13
2023-02-26T23:21:56.858Z,2.55
2023-02-26T23:24:01.893Z,3.10
2023-02-26T23:26:06.902Z,2.30
2023-02-26T23:28:14.632Z,2.38
2023-02-26T23:30:21.867Z,2.10
2023-02-26T23:32:27.051Z,1.80
2023-02-26T23:36:37.243Z,2.00
2023-02-26T23:38:42.315Z,1.90
2023-02-26T23:40:47.179Z,2.33
2023-02-26T23:42:51.966Z,2.35
2023-02-26T23:44:59.389Z,2.40
2023-02-26T23:47:04.152Z,2.58
2023-02-26T23:49:09.657Z,2.60
2023-02-26T23:51:14.463Z,1.90
2023-02-26T23:53:19.253Z,2.25
2023-02-26T23:55:24.351Z,2.17
2023-02-26T23:59:33.768Z,2.42
